LECH Airport Information

Runway Information
Runway 06 Length 8858 ft width 147 ft
Elevation 1093 ft Threshold ft Heading 57
Runway 24 Length 8858 ft Width 147 ft
Elevation 1181 ft Threshold ft Heading 237
Airport Frequencies
Airport Navaids
Airport Weather Information & NOTAM
ADDS - METARS form results

(0547 UTC 02 July 2022)
Data provider http://aviationweather.gov/metar/data/
 
METAR text: LECH 020530Z AUTO VRB02KT 9000 SCT008 BKN012 18/17 Q1020
Conditions at: LECH (CASTELLON , ES) observed 0530 UTC 02 July 2022
Temperature: 18.0°C (64°F)
Dewpoint: 17.0°C (63°F) [RH = 94%]
Pressure (altimeter): 30.12 inches Hg (1020.0 mb)
Winds: variable direction winds at 2 MPH (2 knots; 1.0 m/s)
Visibility: 6 miles ( 9 km)
Ceiling: 1200 feet AGL
Clouds: scattered clouds at 800 feet AGL
broken clouds at 1200 feet AGL
Weather: no significant weather observed at this time

METAR text: LECH 020500Z AUTO VRB02KT 7000 BKN006 17/16 Q1020
Conditions at: LECH (CASTELLON , ES) observed 0500 UTC 02 July 2022
Temperature: 17.0°C (63°F)
Dewpoint: 16.0°C (61°F) [RH = 94%]
Pressure (altimeter): 30.12 inches Hg (1020.0 mb)
Winds: variable direction winds at 2 MPH (2 knots; 1.0 m/s)
Visibility: 4 miles ( 7 km)
Ceiling: 600 feet AGL
Clouds: broken clouds at 600 feet AGL
Weather: no significant weather observed at this time